createdAt,value
2018-06-03T09:15:40.675Z,24.07
2018-06-03T09:16:36.628Z,24.19
2018-06-03T09:17:36.635Z,24.32
2018-06-03T09:18:36.644Z,24.19
2018-06-03T09:19:36.646Z,24.17
2018-06-03T09:20:36.659Z,24.20
2018-06-03T09:21:36.661Z,24.35
2018-06-03T09:22:36.675Z,24.37
2018-06-03T09:23:36.678Z,24.23
2018-06-03T09:24:36.684Z,23.98
2018-06-03T09:25:36.694Z,24.05
2018-06-03T09:26:36.696Z,24.23
2018-06-03T09:27:36.703Z,24.17
2018-06-03T09:28:36.720Z,24.31
2018-06-03T09:29:36.718Z,24.26
2018-06-03T09:30:36.723Z,24.24
2018-06-03T09:31:36.733Z,24.47
2018-06-03T09:32:36.740Z,24.49
2018-06-03T09:33:36.754Z,24.37
2018-06-03T09:34:36.785Z,24.52
2018-06-03T09:35:36.763Z,24.59
2018-06-03T09:36:36.784Z,24.53
2018-06-03T09:37:36.926Z,24.23
2018-06-03T09:38:36.912Z,24.37
2018-06-03T09:39:36.790Z,24.53
2018-06-03T09:40:36.810Z,24.59
2018-06-03T09:41:36.804Z,24.64
2018-06-03T09:42:36.811Z,24.59
2018-06-03T09:43:36.823Z,24.61
2018-06-03T09:44:36.856Z,24.47
2018-06-03T09:45:36.837Z,24.44
2018-06-03T09:46:36.839Z,24.37
2018-06-03T09:47:36.850Z,24.38
2018-06-03T09:48:36.853Z,24.42
2018-06-03T09:49:36.874Z,24.27
2018-06-03T09:50:36.878Z,24.14
2018-06-03T09:51:36.876Z,24.22
2018-06-03T09:52:36.892Z,24.53
2018-06-03T09:53:36.895Z,24.53
2018-06-03T09:54:36.912Z,24.39
2018-06-03T09:55:36.944Z,24.41
2018-06-03T09:56:36.922Z,24.42
2018-06-03T09:57:36.922Z,24.12
2018-06-03T09:58:36.930Z,24.08
2018-06-03T09:59:36.940Z,24.16
2018-06-03T10:00:36.942Z,24.23
2018-06-03T10:01:36.965Z,24.22
2018-06-03T10:02:36.958Z,24.26
2018-06-03T10:03:36.967Z,24.44
2018-06-03T10:04:36.987Z,24.54
2018-06-03T10:05:36.984Z,24.63
2018-06-03T10:06:36.986Z,24.80
2018-06-03T10:07:36.993Z,24.77
2018-06-03T10:08:37.003Z,24.82
2018-06-03T10:09:37.008Z,24.88
2018-06-03T10:10:37.051Z,24.79
2018-06-03T10:11:37.029Z,24.71
2018-06-03T10:12:37.028Z,24.76
2018-06-03T10:13:37.035Z,24.94
2018-06-03T10:14:37.043Z,24.82
2018-06-03T10:15:37.051Z,24.61
2018-06-03T10:16:37.059Z,24.73
2018-06-03T10:17:37.066Z,24.82
2018-06-03T10:18:37.071Z,24.80
2018-06-03T10:19:37.079Z,24.80
2018-06-03T10:20:37.087Z,24.95
2018-06-03T10:21:37.091Z,25.02
2018-06-03T10:22:37.114Z,25.13
2018-06-03T10:23:37.108Z,25.06
2018-06-03T10:24:37.118Z,24.95
2018-06-03T10:25:37.124Z,24.90
2018-06-03T10:26:37.126Z,24.90
2018-06-03T10:27:37.134Z,24.85
2018-06-03T10:28:37.138Z,24.87
2018-06-03T10:29:37.154Z,24.80
2018-06-03T10:30:37.160Z,25.12
2018-06-03T10:31:37.170Z,25.10
2018-06-03T10:32:37.176Z,25.30
2018-06-03T10:33:37.183Z,24.92
2018-06-03T10:34:37.189Z,24.85
2018-06-03T10:35:37.198Z,24.98
2018-06-03T10:36:37.204Z,25.02
2018-06-03T10:37:37.210Z,25.00
2018-06-03T10:38:37.218Z,24.87
2018-06-03T10:39:37.224Z,24.76
2018-06-03T10:40:37.231Z,24.91
2018-06-03T10:41:37.242Z,24.94
2018-06-03T10:42:37.245Z,24.95
2018-06-03T10:43:37.253Z,24.95
2018-06-03T10:44:37.264Z,25.24
2018-06-03T10:45:37.286Z,25.25
2018-06-03T10:46:37.278Z,25.17
2018-06-03T10:47:37.286Z,25.15
2018-06-03T10:48:37.293Z,25.22
2018-06-03T10:49:37.300Z,25.31
2018-06-03T10:50:37.309Z,25.19
2018-06-03T10:51:37.315Z,25.27
2018-06-03T10:52:37.321Z,25.22
2018-06-03T10:53:37.329Z,25.19
2018-06-03T10:54:37.396Z,25.31
2018-06-03T10:55:37.558Z,25.38
2018-06-03T10:56:37.353Z,25.31
2018-06-03T10:57:37.369Z,25.43
2018-06-03T10:58:37.383Z,25.24
2018-06-03T10:59:37.382Z,25.32
2018-06-03T11:00:37.387Z,25.49
2018-06-03T11:01:37.398Z,25.35
2018-06-03T11:02:37.398Z,25.37
2018-06-03T11:03:37.412Z,25.34
2018-06-03T11:04:37.416Z,25.35
2018-06-03T11:05:37.426Z,25.35
2018-06-03T11:06:37.429Z,25.22
2018-06-03T11:07:37.437Z,25.01
2018-06-03T11:08:37.446Z,25.19
2018-06-03T11:09:37.450Z,25.24
2018-06-03T11:10:37.472Z,25.34
2018-06-03T11:11:37.465Z,25.42
2018-06-03T11:12:37.477Z,25.37
2018-06-03T11:13:37.479Z,25.46
2018-06-03T11:14:37.487Z,25.31
2018-06-03T11:15:37.578Z,25.28
2018-06-03T11:16:37.549Z,25.27
2018-06-03T11:17:37.513Z,25.28
2018-06-03T11:18:37.519Z,25.28
2018-06-03T11:19:37.523Z,25.42
2018-06-03T11:20:37.529Z,25.59
2018-06-03T11:21:37.541Z,25.84
2018-06-03T11:22:37.553Z,25.83
2018-06-03T11:23:37.576Z,25.97
2018-06-03T11:24:37.559Z,25.87
2018-06-03T11:25:37.570Z,26.02
2018-06-03T11:26:37.584Z,25.57
2018-06-03T11:27:37.590Z,25.62
2018-06-03T11:28:37.599Z,25.69
2018-06-03T11:29:37.600Z,25.57
2018-06-03T11:30:37.639Z,25.72
2018-06-03T11:31:37.621Z,25.71
2018-06-03T11:32:37.625Z,25.71
2018-06-03T11:33:37.639Z,25.86
2018-06-03T11:34:37.639Z,26.08
2018-06-03T11:35:37.653Z,25.93
2018-06-03T11:36:37.661Z,25.93
2018-06-03T11:37:37.667Z,25.99
2018-06-03T11:38:37.675Z,25.99
2018-06-03T11:39:37.696Z,25.99
2018-06-03T11:40:37.687Z,26.15
2018-06-03T11:41:37.699Z,26.17
2018-06-03T11:42:45.370Z,26.01
2018-06-03T11:44:31.133Z,25.87
2018-06-03T11:45:31.121Z,25.94
2018-06-03T11:46:31.130Z,26.17
2018-06-03T11:47:31.133Z,26.24
2018-06-03T11:48:31.145Z,26.18
2018-06-03T11:49:31.152Z,26.20
2018-06-03T11:50:31.166Z,26.17
2018-06-03T11:51:31.165Z,25.99
2018-06-03T11:52:31.175Z,25.86
2018-06-03T11:53:31.182Z,25.83
2018-06-03T11:54:31.194Z,25.71
2018-06-03T11:55:31.196Z,26.05
2018-06-03T11:56:31.207Z,25.99
2018-06-03T11:57:31.223Z,25.97
2018-06-03T11:58:31.221Z,26.06
2018-06-03T11:59:31.230Z,26.11
2018-06-03T12:00:31.240Z,26.01
2018-06-03T12:01:31.271Z,25.84
2018-06-03T12:02:31.256Z,26.08
2018-06-03T12:03:31.262Z,26.31
2018-06-03T12:04:31.267Z,26.40
2018-06-03T12:05:31.277Z,26.32
2018-06-03T12:06:31.290Z,26.29
2018-06-03T12:07:31.296Z,26.11
2018-06-03T12:08:31.302Z,25.89
2018-06-03T12:09:31.310Z,25.83
2018-06-03T12:10:31.313Z,26.02
2018-06-03T12:11:31.326Z,25.99
2018-06-03T12:12:31.335Z,26.08
2018-06-03T12:13:31.340Z,25.99
2018-06-03T12:14:31.351Z,26.08
2018-06-03T12:15:31.388Z,26.25
2018-06-03T12:16:31.378Z,26.22
2018-06-03T12:17:31.380Z,26.24
2018-06-03T12:18:31.380Z,26.15
2018-06-03T12:19:31.391Z,26.28
2018-06-03T12:20:31.397Z,26.37
2018-06-03T12:21:31.409Z,26.43
2018-06-03T12:22:31.416Z,26.39
2018-06-03T12:23:31.421Z,26.39
2018-06-03T12:24:31.436Z,26.17
2018-06-03T12:25:31.437Z,26.04
2018-06-03T12:26:31.444Z,26.06
2018-06-03T12:27:31.454Z,25.87
2018-06-03T12:28:31.521Z,25.97
2018-06-03T12:29:31.471Z,25.98
2018-06-03T12:30:31.480Z,25.91
2018-06-03T12:31:31.484Z,25.94
2018-06-03T12:32:31.493Z,26.20
2018-06-03T12:33:31.507Z,26.06
2018-06-03T12:34:31.513Z,26.08
2018-06-03T12:35:31.519Z,25.98
2018-06-03T12:36:31.529Z,26.05
2018-06-03T12:37:31.533Z,26.17
2018-06-03T12:38:31.541Z,26.22
2018-06-03T12:39:31.547Z,26.24
2018-06-03T12:40:31.558Z,26.36
2018-06-03T12:41:31.572Z,26.35
2018-06-03T12:42:31.578Z,26.24
2018-06-03T12:43:31.584Z,26.12
2018-06-03T12:44:31.597Z,26.27
2018-06-03T12:45:31.597Z,26.31
2018-06-03T12:46:31.604Z,26.42
2018-06-03T12:47:31.615Z,26.54
2018-06-03T12:48:31.619Z,26.35
2018-06-03T12:49:31.648Z,26.57
2018-06-03T12:50:31.644Z,26.76
2018-06-03T12:51:31.651Z,26.67
2018-06-03T12:52:31.654Z,26.76
2018-06-03T12:53:31.675Z,26.61
2018-06-03T12:54:31.679Z,26.67
2018-06-03T12:55:31.684Z,26.61
2018-06-03T12:56:31.696Z,26.74
2018-06-03T12:57:31.700Z,26.64
2018-06-03T12:58:31.708Z,26.62
2018-06-03T12:59:31.723Z,26.68
2018-06-03T13:00:31.723Z,26.55
2018-06-03T13:01:31.737Z,26.74
2018-06-03T13:02:31.745Z,27.01
2018-06-03T13:03:31.753Z,26.76
2018-06-03T13:04:31.763Z,26.68
2018-06-03T13:05:31.765Z,26.80
2018-06-03T13:06:31.847Z,26.95
2018-06-03T13:07:31.784Z,26.96
2018-06-03T13:08:31.793Z,27.01
2018-06-03T13:09:31.801Z,27.06
2018-06-03T13:10:31.811Z,27.02
2018-06-03T13:11:31.820Z,27.04
2018-06-03T13:12:31.828Z,26.67
2018-06-03T13:13:31.839Z,26.76
2018-06-03T13:14:31.845Z,26.69
2018-06-03T13:15:31.853Z,26.68
2018-06-03T13:16:31.860Z,26.62
2018-06-03T13:17:31.873Z,26.73
2018-06-03T13:18:31.919Z,26.50
2018-06-03T13:19:31.886Z,26.58
2018-06-03T13:20:31.897Z,26.62
2018-06-03T13:21:31.906Z,26.67
2018-06-03T13:22:31.918Z,26.65
2018-06-03T13:23:31.921Z,26.58
2018-06-03T13:24:31.931Z,26.58
2018-06-03T13:25:31.939Z,26.65
2018-06-03T13:26:31.945Z,26.68
2018-06-03T13:27:31.954Z,26.80
2018-06-03T13:28:31.964Z,26.81
2018-06-03T13:29:31.969Z,26.84
2018-06-03T13:30:31.980Z,26.76
2018-06-03T13:31:31.987Z,26.77
2018-06-03T13:32:31.994Z,26.89
2018-06-03T13:33:32.004Z,26.98
2018-06-03T13:34:32.017Z,27.01
2018-06-03T13:35:32.017Z,27.06
2018-06-03T13:36:32.034Z,27.05
2018-06-03T13:37:32.040Z,27.10
2018-06-03T13:38:32.044Z,26.89
2018-06-03T13:39:32.061Z,26.89
2018-06-03T13:40:32.060Z,27.01
2018-06-03T13:41:32.074Z,27.11
2018-06-03T13:42:32.085Z,27.16
2018-06-03T13:43:32.092Z,27.28
2018-06-03T13:44:32.097Z,27.24
2018-06-03T13:45:32.109Z,27.26
2018-06-03T13:46:32.119Z,27.23
2018-06-03T13:47:32.128Z,27.19
2018-06-03T13:48:32.134Z,27.14
2018-06-03T13:49:32.152Z,27.19
2018-06-03T13:50:32.149Z,27.11
2018-06-03T13:51:32.199Z,27.28
2018-06-03T13:52:32.175Z,27.26
2018-06-03T13:53:32.176Z,27.10
2018-06-03T13:54:32.187Z,27.14
2018-06-03T13:55:32.198Z,27.26
2018-06-03T13:56:32.208Z,27.19
2018-06-03T13:57:32.211Z,27.13
2018-06-03T13:58:32.227Z,27.13
2018-06-03T13:59:32.231Z,27.06
2018-06-03T14:00:32.245Z,27.11
2018-06-03T14:01:32.250Z,27.09
2018-06-03T14:02:32.254Z,27.17
2018-06-03T14:03:32.272Z,27.31
2018-06-03T14:04:32.274Z,27.33
2018-06-03T14:05:32.293Z,27.36
2018-06-03T14:06:32.295Z,27.41
2018-06-03T14:07:32.297Z,27.29
2018-06-03T14:08:32.315Z,27.21
2018-06-03T14:09:32.319Z,27.10
2018-06-03T14:10:32.329Z,27.10
2018-06-03T14:11:32.336Z,27.16
2018-06-03T14:12:32.346Z,27.46
2018-06-03T14:13:32.358Z,27.50
2018-06-03T14:14:32.361Z,27.67
2018-06-03T14:15:32.367Z,27.53
2018-06-03T14:16:32.380Z,27.53
2018-06-03T14:17:32.391Z,27.31
2018-06-03T14:18:32.398Z,27.50
2018-06-03T14:19:32.442Z,27.43
2018-06-03T14:20:32.414Z,27.43
2018-06-03T14:21:41.056Z,27.36
2018-06-03T14:23:25.852Z,27.53
2018-06-03T14:24:25.844Z,27.58
2018-06-03T14:25:25.923Z,27.41
2018-06-03T14:26:25.862Z,27.29
2018-06-03T14:27:25.870Z,27.28
2018-06-03T14:28:34.510Z,27.13
2018-06-03T14:30:19.320Z,27.17
2018-06-03T14:31:19.296Z,27.20
2018-06-03T14:32:19.307Z,27.23
2018-06-03T14:33:19.313Z,27.10
2018-06-03T14:34:19.323Z,27.13
2018-06-03T14:35:19.331Z,27.06
2018-06-03T14:36:19.337Z,27.05
2018-06-03T14:37:19.356Z,27.09
2018-06-03T14:38:19.359Z,27.13
2018-06-03T14:39:19.367Z,27.04
2018-06-03T14:40:19.372Z,27.11
2018-06-03T14:41:19.381Z,27.04
2018-06-03T14:42:19.391Z,27.06
2018-06-03T14:43:19.400Z,27.26
2018-06-03T14:44:19.407Z,27.17
2018-06-03T14:45:19.421Z,27.13
2018-06-03T14:46:19.428Z,27.10
2018-06-03T14:47:19.436Z,27.14
2018-06-03T14:48:19.448Z,27.04
2018-06-03T14:49:19.460Z,27.13
2018-06-03T14:50:19.463Z,27.16
2018-06-03T14:51:19.472Z,27.05
2018-06-03T14:52:19.481Z,27.06
2018-06-03T14:53:19.491Z,27.04
2018-06-03T14:54:19.498Z,27.02
2018-06-03T14:55:19.507Z,27.10
2018-06-03T14:56:19.522Z,27.19
2018-06-03T14:57:19.524Z,27.36
2018-06-03T14:58:19.533Z,27.26
2018-06-03T14:59:19.494Z,27.28
2018-06-03T15:00:19.500Z,27.21
2018-06-03T15:01:19.510Z,27.36
2018-06-03T15:02:19.518Z,27.26
2018-06-03T15:03:19.525Z,27.35
2018-06-03T15:04:19.536Z,27.31
2018-06-03T15:05:19.544Z,27.31
2018-06-03T15:06:19.549Z,27.28
2018-06-03T15:07:19.562Z,27.24
2018-06-03T15:08:19.569Z,27.17
2018-06-03T15:09:19.579Z,27.20
2018-06-03T15:10:19.587Z,27.10
2018-06-03T15:11:19.594Z,27.02
2018-06-03T15:12:19.602Z,26.84
2018-06-03T15:13:19.612Z,26.89
2018-06-03T15:14:19.617Z,26.77
2018-06-03T15:15:19.629Z,26.76
2018-06-03T15:16:19.640Z,26.73
2018-06-03T15:17:19.645Z,26.74
2018-06-03T15:18:19.653Z,26.77
2018-06-03T15:19:19.671Z,26.72
2018-06-03T15:20:19.707Z,26.69
2018-06-03T15:21:19.693Z,26.68
2018-06-03T15:22:19.711Z,26.72
2018-06-03T15:23:19.720Z,26.67
2018-06-03T15:24:19.730Z,26.65
2018-06-03T15:25:19.747Z,26.76
2018-06-03T15:26:19.767Z,26.76
2018-06-03T15:27:19.767Z,26.76
2018-06-03T15:28:19.777Z,26.83
2018-06-03T15:29:19.786Z,26.95
2018-06-03T15:30:19.794Z,26.98
2018-06-03T15:31:19.803Z,27.04
2018-06-03T15:32:19.817Z,27.09
2018-06-03T15:33:19.822Z,27.01
2018-06-03T15:34:19.829Z,26.95
2018-06-03T15:35:19.844Z,27.05
2018-06-03T15:36:19.851Z,27.04
2018-06-03T15:37:19.864Z,27.11
2018-06-03T15:38:19.904Z,27.10
2018-06-03T15:39:19.884Z,27.09
2018-06-03T15:40:19.893Z,27.06
2018-06-03T15:41:19.898Z,27.11
2018-06-03T15:42:19.904Z,26.99
2018-06-03T15:43:19.922Z,27.01
2018-06-03T15:44:19.925Z,27.11
2018-06-03T15:45:19.930Z,27.17
2018-06-03T15:46:19.947Z,27.20
2018-06-03T15:47:19.950Z,27.28
2018-06-03T15:48:19.960Z,27.31
2018-06-03T15:49:19.981Z,27.23
2018-06-03T15:50:19.980Z,27.17
2018-06-03T15:51:19.991Z,27.26
2018-06-03T15:52:19.998Z,27.38
2018-06-03T15:53:20.016Z,27.41
2018-06-03T15:54:20.033Z,27.46
2018-06-03T15:55:20.028Z,27.42
2018-06-03T15:56:20.033Z,27.43
2018-06-03T15:57:20.043Z,27.50
2018-06-03T15:58:20.053Z,27.57
2018-06-03T15:59:20.060Z,27.51
2018-06-03T16:00:20.071Z,27.57
2018-06-03T16:01:20.123Z,27.43
2018-06-03T16:02:20.087Z,27.43
2018-06-03T16:03:20.094Z,27.42
2018-06-03T16:04:20.113Z,27.39
2018-06-03T16:05:20.120Z,27.36
2018-06-03T16:06:20.125Z,27.43
2018-06-03T16:07:20.131Z,27.47
2018-06-03T16:08:20.140Z,27.53
2018-06-03T16:09:20.173Z,27.43
2018-06-03T16:10:20.165Z,27.39
2018-06-03T16:11:20.175Z,27.39
2018-06-03T16:12:20.183Z,27.35
2018-06-03T16:13:20.190Z,27.46
2018-06-03T16:14:20.205Z,27.38
2018-06-03T16:15:20.206Z,27.29
2018-06-03T16:16:20.285Z,27.31
2018-06-03T16:17:20.223Z,27.41
2018-06-03T16:18:20.234Z,27.38
2018-06-03T16:19:20.246Z,27.36
2018-06-03T16:20:20.248Z,27.38
2018-06-03T16:21:20.262Z,27.47
2018-06-03T16:22:20.294Z,27.39
2018-06-03T16:23:20.281Z,27.41
2018-06-03T16:24:20.299Z,27.31
2018-06-03T16:25:20.299Z,27.29
2018-06-03T16:26:20.308Z,27.35
2018-06-03T16:27:20.312Z,27.33
2018-06-03T16:28:20.314Z,27.38
2018-06-03T16:29:20.328Z,27.43
2018-06-03T16:30:20.332Z,27.39
2018-06-03T16:31:20.373Z,27.42
2018-06-03T16:32:20.343Z,27.46
2018-06-03T16:33:20.370Z,27.46
2018-06-03T16:34:20.359Z,27.35
2018-06-03T16:35:20.375Z,27.38
2018-06-03T16:36:20.370Z,27.33
2018-06-03T16:37:20.391Z,27.32
2018-06-03T16:38:20.386Z,27.33
2018-06-03T16:39:20.389Z,27.20
2018-06-03T16:40:20.405Z,27.33
2018-06-03T16:41:20.415Z,27.33
2018-06-03T16:42:20.421Z,27.24
2018-06-03T16:43:20.460Z,27.26
2018-06-03T16:44:20.449Z,27.28
2018-06-03T16:45:20.466Z,27.38
2018-06-03T16:46:20.464Z,27.31
2018-06-03T16:47:20.463Z,27.20
2018-06-03T16:48:20.472Z,27.23
2018-06-03T16:49:20.489Z,27.28
2018-06-03T16:50:20.497Z,27.26
2018-06-03T16:51:20.500Z,27.26
2018-06-03T16:52:20.511Z,27.31
2018-06-03T16:53:20.522Z,27.32
2018-06-03T16:54:20.523Z,27.26
2018-06-03T16:55:20.531Z,27.29
2018-06-03T16:56:20.539Z,27.35
2018-06-03T16:57:20.553Z,27.31
2018-06-03T16:58:20.549Z,27.39
2018-06-03T16:59:20.564Z,27.33
2018-06-03T17:00:20.567Z,27.24
2018-06-03T17:01:20.584Z,27.38
2018-06-03T17:02:20.589Z,27.31
2018-06-03T17:03:20.595Z,27.23
2018-06-03T17:04:20.605Z,27.26
2018-06-03T17:05:20.609Z,27.21
2018-06-03T17:06:20.621Z,27.20
2018-06-03T17:07:29.270Z,27.23
2018-06-03T17:09:14.048Z,27.20
2018-06-03T17:10:14.044Z,27.06
2018-06-03T17:11:14.067Z,27.11
2018-06-03T17:12:14.060Z,27.13
2018-06-03T17:13:14.124Z,27.17
2018-06-03T17:14:22.725Z,27.06
2018-06-03T17:16:16.564Z,27.10
2018-06-03T17:17:07.510Z,27.11
2018-06-03T17:18:07.513Z,27.10
2018-06-03T17:19:07.551Z,27.01
2018-06-03T17:20:07.531Z,27.01
2018-06-03T17:21:07.535Z,26.96
2018-06-03T17:22:07.543Z,27.04
2018-06-03T17:23:07.550Z,26.99
2018-06-03T17:24:07.566Z,27.16
2018-06-03T17:25:07.579Z,27.11
2018-06-03T17:26:07.586Z,27.09
2018-06-03T17:27:07.585Z,27.11
2018-06-03T17:28:07.593Z,27.06
2018-06-03T17:29:07.606Z,27.04
2018-06-03T17:30:07.618Z,27.13
2018-06-03T17:31:07.621Z,27.13
2018-06-03T17:32:07.635Z,27.23
2018-06-03T17:33:07.638Z,27.21
2018-06-03T17:34:07.646Z,27.21
2018-06-03T17:35:07.656Z,27.29
2018-06-03T17:36:07.660Z,27.29
2018-06-03T17:37:07.677Z,27.28
2018-06-03T17:38:07.676Z,27.26
2018-06-03T17:39:07.682Z,27.21
2018-06-03T17:40:07.695Z,27.23
2018-06-03T17:41:07.705Z,27.20
2018-06-03T17:42:07.711Z,27.17
2018-06-03T17:43:07.721Z,27.19
2018-06-03T17:44:07.727Z,27.05
2018-06-03T17:45:07.735Z,27.16
2018-06-03T17:46:07.744Z,27.17
2018-06-03T17:47:07.754Z,26.99
2018-06-03T17:48:07.763Z,27.02
2018-06-03T17:49:07.770Z,27.19
2018-06-03T17:50:07.800Z,27.05
2018-06-03T17:51:07.797Z,27.04
2018-06-03T17:52:07.792Z,27.02
2018-06-03T17:53:07.805Z,27.13
2018-06-03T17:54:07.810Z,27.16
2018-06-03T17:55:07.826Z,27.01
2018-06-03T17:56:07.832Z,27.10
2018-06-03T17:57:07.841Z,27.01
2018-06-03T17:58:07.845Z,27.04
2018-06-03T17:59:07.856Z,27.04
2018-06-03T18:00:07.868Z,26.99
2018-06-03T18:01:07.873Z,27.01
2018-06-03T18:02:07.881Z,27.05
2018-06-03T18:03:07.890Z,26.94
2018-06-03T18:04:07.903Z,26.95
2018-06-03T18:05:07.910Z,26.98
2018-06-03T18:06:07.918Z,27.02
2018-06-03T18:07:07.927Z,27.01
2018-06-03T18:08:07.945Z,27.04
2018-06-03T18:09:07.941Z,26.89
2018-06-03T18:10:07.952Z,26.92
2018-06-03T18:11:07.960Z,26.87
2018-06-03T18:12:07.969Z,26.74
2018-06-03T18:13:08.028Z,26.77
2018-06-03T18:14:07.986Z,26.79
2018-06-03T18:15:07.999Z,26.77
2018-06-03T18:16:08.004Z,26.73
2018-06-03T18:17:08.033Z,26.76
2018-06-03T18:18:08.016Z,26.74
2018-06-03T18:19:08.026Z,26.74
2018-06-03T18:20:08.033Z,26.65
2018-06-03T18:21:08.043Z,26.64
2018-06-03T18:22:08.053Z,26.65
2018-06-03T18:23:08.060Z,26.73
2018-06-03T18:24:08.072Z,26.67
2018-06-03T18:25:08.069Z,26.72
2018-06-03T18:26:08.088Z,26.65
2018-06-03T18:27:08.088Z,26.74
2018-06-03T18:28:08.098Z,26.73
2018-06-03T18:29:08.107Z,26.65
2018-06-03T18:30:08.119Z,26.72
2018-06-03T18:31:08.125Z,26.68
2018-06-03T18:32:08.134Z,26.62
2018-06-03T18:33:08.143Z,26.62
2018-06-03T18:34:08.151Z,26.61
2018-06-03T18:35:08.153Z,26.57
2018-06-03T18:36:08.166Z,26.58
2018-06-03T18:37:08.176Z,26.62
2018-06-03T18:38:08.179Z,26.61
2018-06-03T18:39:08.191Z,26.57
2018-06-03T18:40:08.195Z,26.58
2018-06-03T18:41:08.210Z,26.49
2018-06-03T18:42:08.219Z,26.52
2018-06-03T18:43:08.222Z,26.50
2018-06-03T18:44:08.231Z,26.50
2018-06-03T18:45:08.242Z,26.47
2018-06-03T18:46:08.248Z,26.55
2018-06-03T18:47:08.254Z,26.55
2018-06-03T18:48:08.260Z,26.57
2018-06-03T18:49:08.269Z,26.50
2018-06-03T18:50:08.280Z,26.42
2018-06-03T18:51:08.295Z,26.36
2018-06-03T18:52:08.300Z,26.40
2018-06-03T18:53:08.307Z,26.36
2018-06-03T18:54:08.313Z,26.39
2018-06-03T18:55:08.327Z,26.44
2018-06-03T18:56:08.364Z,26.24
2018-06-03T18:57:08.335Z,26.24
2018-06-03T18:58:08.346Z,26.25
2018-06-03T18:59:08.375Z,26.27
2018-06-03T19:00:08.363Z,26.17
2018-06-03T19:01:08.370Z,26.11
2018-06-03T19:02:08.378Z,26.22
2018-06-03T19:03:08.394Z,26.24
2018-06-03T19:04:08.393Z,26.20
2018-06-03T19:05:08.399Z,26.18
2018-06-03T19:06:08.407Z,26.27
2018-06-03T19:07:08.419Z,26.22
2018-06-03T19:08:08.496Z,26.27
2018-06-03T19:09:08.432Z,26.28
2018-06-03T19:10:08.437Z,26.24
2018-06-03T19:11:08.456Z,26.17
2018-06-03T19:12:08.452Z,26.18
2018-06-03T19:13:08.457Z,26.15
2018-06-03T19:14:08.470Z,26.15
2018-06-03T19:15:08.486Z,26.11
2018-06-03T19:16:08.480Z,26.12
2018-06-03T19:17:08.498Z,25.99
2018-06-03T19:18:08.499Z,25.97
2018-06-03T19:19:08.506Z,25.99
2018-06-03T19:20:08.530Z,25.98
2018-06-03T19:21:08.533Z,26.04
2018-06-03T19:22:08.531Z,25.82
2018-06-03T19:23:08.563Z,25.89
2018-06-03T19:24:08.553Z,25.87
2018-06-03T19:25:08.554Z,25.94
2018-06-03T19:26:08.565Z,25.97
2018-06-03T19:27:08.567Z,25.83
2018-06-03T19:28:08.580Z,25.72
2018-06-03T19:29:08.589Z,25.75
2018-06-03T19:30:08.593Z,25.57
2018-06-03T19:31:08.593Z,25.56
2018-06-03T19:32:08.607Z,25.43
2018-06-03T19:33:08.609Z,25.46
2018-06-03T19:34:08.623Z,25.74
2018-06-03T19:35:08.629Z,25.89
2018-06-03T19:36:08.627Z,25.98
2018-06-03T19:37:08.642Z,25.84
2018-06-03T19:38:08.643Z,25.86
2018-06-03T19:39:08.650Z,25.74
2018-06-03T19:40:08.659Z,25.77
2018-06-03T19:41:08.667Z,25.80
2018-06-03T19:42:08.686Z,25.83
2018-06-03T19:43:08.682Z,25.98
2018-06-03T19:44:08.687Z,25.84
2018-06-03T19:45:08.701Z,25.79
2018-06-03T19:46:08.739Z,25.64
2018-06-03T19:47:08.712Z,25.59
2018-06-03T19:48:08.722Z,25.69
2018-06-03T19:49:08.728Z,25.39
2018-06-03T19:50:08.732Z,25.43
2018-06-03T19:51:08.743Z,25.49
2018-06-03T19:52:08.748Z,25.24
2018-06-03T19:53:08.752Z,25.24
2018-06-03T19:54:08.773Z,25.15
2018-06-03T19:55:08.774Z,25.37
2018-06-03T19:56:08.780Z,25.32
2018-06-03T19:57:08.790Z,25.50
2018-06-03T19:58:08.815Z,25.47
2018-06-03T19:59:08.794Z,25.37
2018-06-03T20:00:08.804Z,25.43
2018-06-03T20:01:08.813Z,25.47
2018-06-03T20:02:08.849Z,25.39
2018-06-03T20:03:08.826Z,25.52
2018-06-03T20:04:08.847Z,25.59
2018-06-03T20:05:08.837Z,25.56
2018-06-03T20:06:08.843Z,25.52
2018-06-03T20:07:08.855Z,25.56
2018-06-03T20:08:08.855Z,25.57
2018-06-03T20:09:08.862Z,25.52
2018-06-03T20:10:08.869Z,25.54
2018-06-03T20:11:08.877Z,25.24
2018-06-03T20:12:08.909Z,25.35
2018-06-03T20:13:08.895Z,25.35
2018-06-03T20:14:08.895Z,25.44
2018-06-03T20:15:08.903Z,25.44
2018-06-03T20:16:08.911Z,25.37
2018-06-03T20:17:08.920Z,25.34
2018-06-03T20:18:08.921Z,25.35
2018-06-03T20:19:08.933Z,25.32
2018-06-03T20:20:08.935Z,25.34
2018-06-03T20:21:08.948Z,25.28
2018-06-03T20:22:08.986Z,25.34
2018-06-03T20:23:08.959Z,25.24
2018-06-03T20:24:08.961Z,24.95
2018-06-03T20:25:08.970Z,25.07
2018-06-03T20:26:08.980Z,25.09
2018-06-03T20:27:08.988Z,25.10
2018-06-03T20:28:08.990Z,25.10
2018-06-03T20:29:08.998Z,25.15
2018-06-03T20:30:09.007Z,25.09
2018-06-03T20:31:09.013Z,24.95
2018-06-03T20:32:09.018Z,24.94
2018-06-03T20:33:09.028Z,24.88
2018-06-03T20:34:09.035Z,24.85
2018-06-03T20:35:09.038Z,24.83
2018-06-03T20:36:09.080Z,24.76
2018-06-03T20:37:09.054Z,24.90
2018-06-03T20:38:09.054Z,24.87
2018-06-03T20:39:09.106Z,24.67
2018-06-03T20:40:09.075Z,24.79
2018-06-03T20:41:09.082Z,24.68
2018-06-03T20:42:09.085Z,24.50
2018-06-03T20:43:09.099Z,24.77
2018-06-03T20:44:09.099Z,24.77
2018-06-03T20:45:09.105Z,24.75
2018-06-03T20:46:09.112Z,24.83
2018-06-03T20:47:09.121Z,24.61
2018-06-03T20:48:09.131Z,24.57
2018-06-03T20:49:09.134Z,24.53
2018-06-03T20:50:09.139Z,24.49
2018-06-03T20:51:09.152Z,24.56
2018-06-03T20:52:09.150Z,24.56
2018-06-03T20:53:09.162Z,24.39
2018-06-03T20:54:09.164Z,24.35
2018-06-03T20:55:09.176Z,24.19
2018-06-03T20:56:09.177Z,24.17
2018-06-03T20:57:09.181Z,24.23
2018-06-03T20:58:09.190Z,24.31
2018-06-03T20:59:09.201Z,24.34
2018-06-03T21:00:09.203Z,24.12
2018-06-03T21:01:09.251Z,24.31
2018-06-03T21:02:09.227Z,24.34
2018-06-03T21:03:09.223Z,24.07
2018-06-03T21:04:09.232Z,23.89
2018-06-03T21:05:09.259Z,24.27
2018-06-03T21:06:09.245Z,24.19
2018-06-03T21:07:09.253Z,24.49
2018-06-03T21:08:09.259Z,24.73
2018-06-03T21:09:09.272Z,24.16
2018-06-03T21:10:09.269Z,24.45
2018-06-03T21:11:09.276Z,24.07
2018-06-03T21:12:09.285Z,23.72
2018-06-03T21:13:09.289Z,24.10
2018-06-03T21:14:09.301Z,23.92
2018-06-03T21:15:09.305Z,24.08
2018-06-03T21:16:09.305Z,23.98
2018-06-03T21:17:09.319Z,23.95
2018-06-03T21:18:09.324Z,24.12
2018-06-03T21:19:09.328Z,23.98
2018-06-03T21:20:09.329Z,23.86
2018-06-03T21:21:09.342Z,24.01
2018-06-03T21:22:09.344Z,24.23
2018-06-03T21:23:09.349Z,23.97
2018-06-03T21:24:09.360Z,23.89
2018-06-03T21:25:09.366Z,23.82
2018-06-03T21:26:09.369Z,23.72
2018-06-03T21:27:09.379Z,23.57
2018-06-03T21:28:09.382Z,23.58
2018-06-03T21:29:09.394Z,23.61
2018-06-03T21:30:09.397Z,23.61
2018-06-03T21:31:09.405Z,23.58
2018-06-03T21:32:09.411Z,23.58
2018-06-03T21:33:09.449Z,23.65
2018-06-03T21:34:09.425Z,23.72
2018-06-03T21:35:09.433Z,23.64
2018-06-03T21:36:09.431Z,23.61
2018-06-03T21:37:09.441Z,23.52
2018-06-03T21:38:09.445Z,23.39
2018-06-03T21:39:09.449Z,23.43
2018-06-03T21:40:09.456Z,23.53
2018-06-03T21:41:09.466Z,23.39
2018-06-03T21:42:09.467Z,23.50
2018-06-03T21:43:09.476Z,23.49
2018-06-03T21:44:09.477Z,23.32
2018-06-03T21:45:09.496Z,23.45
2018-06-03T21:46:09.492Z,23.45
2018-06-03T21:47:09.499Z,23.53
2018-06-03T21:48:09.504Z,23.64
2018-06-03T21:49:09.514Z,23.77
2018-06-03T21:50:09.519Z,23.46
2018-06-03T21:51:09.543Z,23.50
2018-06-03T21:52:09.539Z,23.47
2018-06-03T21:53:09.576Z,23.49
2018-06-03T21:54:09.540Z,23.52
2018-06-03T21:55:09.554Z,23.64
2018-06-03T21:56:09.551Z,23.64
2018-06-03T21:57:09.557Z,23.46
2018-06-03T21:58:09.562Z,23.34
2018-06-03T21:59:09.571Z,23.14
2018-06-03T22:00:09.580Z,23.50
2018-06-03T22:01:09.583Z,23.68
2018-06-03T22:02:09.590Z,23.46
2018-06-03T22:03:09.600Z,23.47
2018-06-03T22:04:09.605Z,23.32
2018-06-03T22:05:09.610Z,23.07
2018-06-03T22:06:09.613Z,23.08
2018-06-03T22:07:09.623Z,22.92
2018-06-03T22:08:09.630Z,22.99
2018-06-03T22:09:09.634Z,23.09
2018-06-03T22:10:09.643Z,23.04
2018-06-03T22:11:09.651Z,22.89
2018-06-03T22:12:09.643Z,22.93